Time;durP1;ratioP1;P1;durP2;ratioP2;P2;SDS_P1;SDS_P2;PMS_P1;PMS_P2;Temp;Humidity;BMP_temperature;BMP_pressure;BME280_temperature;BME280_humidity;BME280_pressure;Samples;Min_cycle;Max_cycle;Signal;HPM_P1;HPM_P2
2022/09/04 00:02:43;;;;;;;4.75;4.13;;;17.50;99.90;;;;;;5068430;28;20212;-77
2022/09/04 00:05:18;;;;;;;4.18;3.75;;;17.50;99.90;;;;;;5068533;28;20204;-77
2022/09/04 00:07:59;;;;;;;4.53;3.88;;;17.30;99.90;;;;;;5066682;28;20250;-77
2022/09/04 00:10:36;;;;;;;4.40;4.10;;;17.40;99.90;;;;;;5068117;28;20185;-78
2022/09/04 00:13:18;;;;;;;4.03;3.67;;;17.30;99.90;;;;;;5066690;28;20181;-76
2022/09/04 00:15:56;;;;;;;4.45;4.05;;;16.90;99.90;;;;;;5069806;28;20198;-77
2022/09/04 00:18:34;;;;;;;5.15;4.68;;;17.30;99.90;;;;;;5065481;28;20207;-76
2022/09/04 00:21:08;;;;;;;5.38;4.50;;;17.70;99.90;;;;;;5066166;28;20176;-77
2022/09/04 00:23:41;;;;;;;4.80;4.40;;;17.30;99.90;;;;;;5063060;28;20204;-76
2022/09/04 00:26:48;;;;;;;4.93;4.38;;;17.40;99.90;;;;;;5066336;28;20180;-78
2022/09/04 00:29:29;;;;;;;4.00;3.60;;;17.30;99.90;;;;;;5065571;28;20204;-77
2022/09/04 00:32:13;;;;;;;6.18;4.60;;;17.30;99.90;;;;;;5063265;28;20196;-77
2022/09/04 00:35:09;;;;;;;4.57;3.90;;;17.20;99.90;;;;;;5066813;28;20284;-77
2022/09/04 00:37:46;;;;;;;10.02;4.15;;;17.30;99.90;;;;;;5065698;28;20279;-77
2022/09/04 00:40:34;;;;;;;4.85;4.35;;;17.30;99.90;;;;;;5057564;28;20188;-77
2022/09/04 00:43:25;;;;;;;4.97;4.57;;;17.20;99.90;;;;;;5069591;28;20667;-77
2022/09/04 00:46:32;;;;;;;4.68;4.20;;;17.30;99.90;;;;;;5069042;28;20188;-76
2022/09/04 00:49:18;;;;;;;5.50;5.00;;;17.20;99.90;;;;;;5066282;28;20212;-76
2022/09/04 00:52:03;;;;;;;5.47;4.40;;;16.80;99.90;;;;;;5067329;28;20184;-75
2022/09/04 00:55:14;;;;;;;6.00;4.40;;;17.20;99.90;;;;;;5068001;28;20235;-76
2022/09/04 00:58:19;;;;;;;5.88;4.82;;;17.30;99.90;;;;;;5075442;28;20251;-76
2022/09/04 01:00:46;;;;;;;5.85;5.32;;;17.20;99.90;;;;;;5058719;28;20212;-77
2022/09/04 01:03:48;;;;;;;5.53;5.00;;;16.70;99.90;;;;;;5069088;28;20181;-76
2022/09/04 01:06:33;;;;;;;5.72;5.22;;;17.40;99.90;;;;;;5020431;28;20182;-76
2022/09/04 01:09:17;;;;;;;5.93;5.15;;;17.10;99.90;;;;;;5066255;28;20212;-76
2022/09/04 01:12:05;;;;;;;5.40;4.93;;;17.30;99.90;;;;;;5072814;28;20173;-77
2022/09/04 01:14:41;;;;;;;5.53;4.85;;;17.00;99.90;;;;;;5068081;28;20676;-78
2022/09/04 01:17:29;;;;;;;5.18;4.68;;;16.60;99.90;;;;;;5065756;28;20181;-78
2022/09/04 01:20:19;;;;;;;5.30;4.50;;;17.00;99.90;;;;;;5069951;28;20255;-78
2022/09/04 01:23:13;;;;;;;5.53;5.03;;;16.90;99.90;;;;;;5070640;28;20191;-77
2022/09/04 01:26:07;;;;;;;5.10;4.60;;;16.90;99.90;;;;;;5071851;28;20208;-77
2022/09/04 01:29:09;;;;;;;6.30;5.30;;;16.80;99.90;;;;;;5072235;28;20205;-77
2022/09/04 01:32:02;;;;;;;5.13;4.63;;;17.00;99.90;;;;;;5068129;28;20655;-78
2022/09/04 01:34:59;;;;;;;4.57;4.18;;;16.80;99.90;;;;;;5068464;28;20209;-77
2022/09/04 01:37:51;;;;;;;6.10;5.00;;;16.80;99.90;;;;;;5062898;28;20185;-77
2022/09/04 01:40:47;;;;;;;5.30;4.90;;;16.70;99.90;;;;;;5067881;28;20257;-78
2022/09/04 01:43:17;;;;;;;4.95;4.45;;;16.70;99.90;;;;;;5071659;28;20252;-78
2022/09/04 01:46:07;;;;;;;4.70;4.30;;;16.60;99.90;;;;;;5072055;28;20204;-77
2022/09/04 01:48:41;;;;;;;4.40;4.00;;;16.80;99.90;;;;;;5068608;28;20232;-77
2022/09/04 01:51:26;;;;;;;6.05;4.90;;;16.50;99.90;;;;;;5062203;28;20203;-77
2022/09/04 01:54:17;;;;;;;6.82;4.88;;;16.80;99.90;;;;;;5070197;28;20218;-78
2022/09/04 01:56:53;;;;;;;4.85;4.43;;;16.90;99.90;;;;;;5060895;28;20312;-77
2022/09/04 01:59:25;;;;;;;5.50;4.80;;;16.70;99.90;;;;;;5071039;28;20204;-77
2022/09/04 02:02:14;;;;;;;5.53;4.43;;;16.20;99.90;;;;;;5068727;28;20181;-78
2022/09/04 02:04:50;;;;;;;3.90;3.60;;;16.50;99.90;;;;;;5068598;28;20671;-78
2022/09/04 02:07:38;;;;;;;4.20;3.80;;;16.60;99.90;;;;;;5060750;28;20189;-78
2022/09/04 02:10:22;;;;;;;4.05;3.72;;;16.60;99.90;;;;;;5067379;28;20201;-78
2022/09/04 02:12:57;;;;;;;4.30;3.90;;;16.50;99.90;;;;;;5069851;28;20259;-78
2022/09/04 02:15:41;;;;;;;4.40;4.00;;;16.50;99.90;;;;;;5071776;28;20211;-78
2022/09/04 02:18:18;;;;;;;4.70;4.30;;;16.60;99.90;;;;;;5065615;28;20223;-78
2022/09/04 02:20:53;;;;;;;4.30;3.90;;;16.70;99.90;;;;;;5067153;28;20180;-77
2022/09/04 02:24:05;;;;;;;4.50;4.10;;;16.50;99.90;;;;;;5065504;28;20173;-77
2022/09/04 02:26:58;;;;;;;4.00;3.70;;;16.60;99.90;;;;;;5040713;28;20205;-76
2022/09/04 02:29:56;;;;;;;4.03;3.63;;;16.60;99.90;;;;;;5066230;28;20727;-76
2022/09/04 02:32:36;;;;;;;3.83;3.53;;;16.40;99.90;;;;;;5057690;28;20272;-76
2022/09/04 02:35:39;;;;;;;4.10;3.80;;;16.40;99.90;;;;;;5064049;28;20569;-77
2022/09/04 02:38:27;;;;;;;4.03;3.63;;;16.30;99.90;;;;;;4999829;28;20233;-76
2022/09/04 02:41:10;;;;;;;4.82;4.15;;;16.30;99.90;;;;;;5058890;28;20718;-76
2022/09/04 02:44:13;;;;;;;4.50;4.10;;;16.40;99.90;;;;;;5071381;28;20184;-77
2022/09/04 02:47:06;;;;;;;4.93;4.35;;;16.40;99.90;;;;;;5063597;28;20230;-77
2022/09/04 02:49:57;;;;;;;4.10;3.70;;;16.20;99.90;;;;;;5060491;28;20209;-77
2022/09/04 02:53:07;;;;;;;4.05;3.70;;;16.40;99.90;;;;;;5069121;28;20180;-76
2022/09/04 02:56:10;;;;;;;3.88;3.58;;;16.30;99.90;;;;;;5070590;28;20700;-78
2022/09/04 02:58:38;;;;;;;3.95;3.65;;;16.10;99.90;;;;;;5068784;28;20225;-77
2022/09/04 03:01:30;;;;;;;5.90;4.20;;;16.60;99.90;;;;;;5060489;28;20543;-78
2022/09/04 03:04:15;;;;;;;4.93;4.43;;;16.20;99.90;;;;;;5070035;28;20188;-78
2022/09/04 03:06:54;;;;;;;4.32;4.00;;;16.30;99.90;;;;;;5069502;28;20181;-78
2022/09/04 03:09:29;;;;;;;4.28;3.67;;;16.10;99.90;;;;;;5062136;28;20200;-78
2022/09/04 03:12:03;;;;;;;4.38;3.85;;;16.20;99.90;;;;;;5070914;28;20184;-78
2022/09/04 03:14:45;;;;;;;3.90;3.60;;;15.60;99.90;;;;;;5066291;28;20302;-78
2022/09/04 03:17:26;;;;;;;4.35;3.95;;;16.10;99.90;;;;;;5063182;28;20177;-78
2022/09/04 03:20:01;;;;;;;4.45;4.15;;;16.00;99.90;;;;;;5069371;28;20208;-78
2022/09/04 03:22:35;;;;;;;4.20;3.90;;;16.40;99.90;;;;;;5057721;28;20203;-78
2022/09/04 03:25:32;;;;;;;5.40;4.10;;;16.10;99.90;;;;;;5068690;28;20203;-77
2022/09/04 03:27:59;;;;;;;3.95;3.65;;;16.20;99.90;;;;;;5066933;28;20227;-77
2022/09/04 03:30:26;;;;;;;5.20;4.20;;;15.70;99.90;;;;;;5059075;28;20177;-77
2022/09/04 03:33:02;;;;;;;4.05;3.67;;;15.70;99.90;;;;;;5062834;28;20173;-76
2022/09/04 03:36:06;;;;;;;6.28;3.90;;;15.70;99.90;;;;;;5069649;28;20220;-77
2022/09/04 03:39:10;;;;;;;4.18;3.78;;;16.10;99.90;;;;;;5059559;28;20263;-76
2022/09/04 03:42:03;;;;;;;4.15;3.75;;;15.70;99.90;;;;;;5047353;28;20312;-76
2022/09/04 03:44:45;;;;;;;4.15;3.85;;;16.00;99.90;;;;;;5065085;28;20249;-77
2022/09/04 03:47:38;;;;;;;3.97;3.67;;;15.90;99.90;;;;;;5064086;28;20189;-76
2022/09/04 03:50:32;;;;;;;3.97;3.50;;;15.80;99.90;;;;;;5065824;28;20216;-78
2022/09/04 03:53:26;;;;;;;4.20;3.55;;;15.90;99.90;;;;;;5069019;28;20223;-78
2022/09/04 03:56:41;;;;;;;3.67;3.40;;;15.80;99.90;;;;;;5064917;28;20591;-78
2022/09/04 03:59:29;;;;;;;4.07;3.70;;;15.90;99.90;;;;;;5023453;28;20206;-78
2022/09/04 04:02:17;;;;;;;6.35;3.72;;;15.60;99.90;;;;;;5019397;28;20193;-77
2022/09/04 04:05:02;;;;;;;4.43;4.03;;;15.90;99.90;;;;;;5054319;28;20693;-77
2022/09/04 04:07:46;;;;;;;3.47;3.28;;;15.60;99.90;;;;;;5068542;28;20186;-77
2022/09/04 04:10:44;;;;;;;3.85;3.22;;;15.90;99.90;;;;;;5065214;28;20389;-78
2022/09/04 04:13:44;;;;;;;3.75;3.45;;;16.10;99.90;;;;;;5064550;28;20200;-77
2022/09/04 04:16:31;;;;;;;3.90;3.50;;;15.80;99.90;;;;;;5077361;28;20177;-77
2022/09/04 04:19:15;;;;;;;4.03;3.63;;;15.40;99.90;;;;;;5067994;28;20695;-77
2022/09/04 04:22:02;;;;;;;4.57;3.53;;;15.40;99.90;;;;;;5066274;28;20230;-77
2022/09/04 04:25:06;;;;;;;4.07;3.72;;;15.70;99.90;;;;;;5065816;28;20563;-77
2022/09/04 04:27:51;;;;;;;8.10;4.20;;;15.80;99.90;;;;;;5064784;28;20255;-77
2022/09/04 04:30:17;;;;;;;4.30;3.90;;;15.70;99.90;;;;;;5068298;28;20201;-78
2022/09/04 04:33:02;;;;;;;4.35;4.05;;;15.30;99.90;;;;;;5069704;28;20189;-77
2022/09/04 04:35:50;;;;;;;3.63;3.33;;;15.70;99.90;;;;;;5066025;28;20215;-78
2022/09/04 04:38:46;;;;;;;4.40;3.90;;;15.70;99.90;;;;;;5067488;28;20189;-77
2022/09/04 04:41:29;;;;;;;3.50;3.20;;;15.60;99.90;;;;;;5067074;28;20613;-77
2022/09/04 04:44:20;;;;;;;4.10;3.70;;;15.50;99.90;;;;;;5072045;28;20189;-77
2022/09/04 04:47:06;;;;;;;3.80;3.50;;;15.60;99.90;;;;;;5071926;28;20184;-77
2022/09/04 04:49:49;;;;;;;3.42;3.13;;;15.70;99.90;;;;;;5066412;28;20673;-77
2022/09/04 04:52:17;;;;;;;3.80;3.50;;;15.90;99.90;;;;;;5067368;28;20267;-78
2022/09/04 04:55:16;;;;;;;4.47;4.07;;;15.10;99.90;;;;;;5071218;28;20241;-77
2022/09/04 04:57:59;;;;;;;3.80;3.50;;;15.70;99.90;;;;;;5066479;28;20215;-79
2022/09/04 05:00:41;;;;;;;4.40;4.00;;;15.50;99.90;;;;;;5069395;28;20192;-77
2022/09/04 05:03:18;;;;;;;3.88;3.55;;;15.50;99.90;;;;;;5069655;28;20262;-78
2022/09/04 05:05:49;;;;;;;4.05;3.65;;;15.50;99.90;;;;;;5068693;28;20556;-76
2022/09/04 05:08:25;;;;;;;3.67;3.38;;;15.60;99.90;;;;;;5070730;28;20203;-76
2022/09/04 05:11:13;;;;;;;3.78;3.47;;;15.60;99.90;;;;;;5070770;28;20176;-77
2022/09/04 05:14:23;;;;;;;4.07;3.78;;;15.80;99.90;;;;;;5071728;28;20250;-77
2022/09/04 05:17:13;;;;;;;4.28;3.95;;;15.50;99.90;;;;;;5033039;28;20181;-77
2022/09/04 05:19:42;;;;;;;4.50;4.10;;;15.50;99.90;;;;;;5071178;28;20240;-77
2022/09/04 05:22:37;;;;;;;3.90;3.45;;;15.20;99.90;;;;;;5068207;28;20177;-77
2022/09/04 05:25:31;;;;;;;4.45;4.05;;;15.70;99.90;;;;;;5060442;28;20718;-76
2022/09/04 05:27:57;;;;;;;4.10;3.80;;;15.60;99.90;;;;;;5070791;28;20177;-76
2022/09/04 05:30:42;;;;;;;4.20;3.90;;;15.50;99.90;;;;;;5083697;28;20202;-77
2022/09/04 05:33:47;;;;;;;4.55;4.15;;;15.70;99.90;;;;;;5068961;28;20180;-78
2022/09/04 05:36:43;;;;;;;4.53;4.10;;;15.50;99.90;;;;;;5069458;28;20177;-77
2022/09/04 05:39:33;;;;;;;4.53;4.13;;;15.10;99.90;;;;;;5061087;28;20213;-77
2022/09/04 05:42:16;;;;;;;4.18;3.85;;;15.30;99.90;;;;;;5050256;28;20200;-78
2022/09/04 05:44:57;;;;;;;3.60;3.30;;;15.70;99.90;;;;;;5067536;28;20328;-77
2022/09/04 05:47:35;;;;;;;4.47;3.75;;;15.80;99.90;;;;;;5065720;28;20196;-77
2022/09/04 05:50:21;;;;;;;4.70;4.18;;;15.50;99.90;;;;;;5071305;28;20283;-79
2022/09/04 05:53:14;;;;;;;6.25;4.15;;;15.90;99.90;;;;;;5066177;28;20185;-79
2022/09/04 05:56:01;;;;;;;4.57;4.18;;;16.10;99.90;;;;;;5066056;28;20200;-80
2022/09/04 05:58:37;;;;;;;5.20;4.80;;;15.80;99.90;;;;;;5067855;28;20206;-79
2022/09/04 06:01:22;;;;;;;4.32;4.03;;;15.90;99.90;;;;;;5069835;28;20222;-81
2022/09/04 06:04:25;;;;;;;4.00;3.70;;;15.90;99.90;;;;;;5065938;28;20195;-82
2022/09/04 06:07:18;;;;;;;4.60;4.25;;;16.10;99.90;;;;;;5064571;28;20180;-82
2022/09/04 06:10:13;;;;;;;4.53;4.18;;;16.10;99.90;;;;;;5071239;28;20288;-81
2022/09/04 06:13:09;;;;;;;4.53;4.15;;;16.20;99.90;;;;;;5060923;28;20189;-82
2022/09/04 06:15:40;;;;;;;4.20;3.80;;;16.30;99.90;;;;;;5064947;28;20215;-83
2022/09/04 06:18:37;;;;;;;4.55;4.15;;;16.20;99.90;;;;;;5065673;28;20186;-83
2022/09/04 06:21:25;;;;;;;5.93;4.57;;;16.40;99.90;;;;;;5069185;28;20230;-83
2022/09/04 06:24:21;;;;;;;4.68;4.00;;;16.50;99.90;;;;;;5068658;28;20193;-82
2022/09/04 06:27:20;;;;;;;4.22;3.83;;;16.70;99.90;;;;;;5067646;28;20267;-83
2022/09/04 06:30:00;;;;;;;4.82;3.95;;;16.60;99.90;;;;;;5067350;28;20212;-83
2022/09/04 06:32:43;;;;;;;4.43;4.00;;;16.90;99.90;;;;;;5070844;28;20201;-83
2022/09/04 06:35:39;;;;;;;4.70;4.10;;;16.90;99.90;;;;;;5068297;28;20289;-83
2022/09/04 06:38:35;;;;;;;4.30;4.00;;;17.00;99.90;;;;;;5054069;28;20204;-84
2022/09/04 06:41:24;;;;;;;4.63;4.22;;;17.00;99.90;;;;;;5069076;28;20245;-84
2022/09/04 06:43:58;;;;;;;4.55;4.25;;;17.10;99.90;;;;;;5070842;28;20189;-81
2022/09/04 06:46:38;;;;;;;4.05;3.75;;;17.30;99.90;;;;;;5064345;28;20189;-82
2022/09/04 06:49:20;;;;;;;4.97;4.43;;;17.80;99.90;;;;;;5067573;28;20205;-82
2022/09/04 06:52:06;;;;;;;4.43;4.05;;;17.50;99.90;;;;;;5064799;28;20200;-82
2022/09/04 06:54:34;;;;;;;4.38;4.03;;;17.80;99.90;;;;;;5063682;28;20861;-81
2022/09/04 06:57:20;;;;;;;4.72;4.13;;;18.10;99.90;;;;;;5068459;28;20239;-81
2022/09/04 07:00:00;;;;;;;4.90;4.20;;;18.00;99.90;;;;;;5065502;28;20197;-81
2022/09/04 07:02:32;;;;;;;3.20;3.00;;;18.40;99.90;;;;;;5063229;28;20528;-81
2022/09/04 07:05:29;;;;;;;4.60;3.93;;;20.70;99.90;;;;;;5067305;28;20576;-81
2022/09/04 07:08:20;;;;;;;3.00;2.80;;;22.60;99.90;;;;;;5076738;28;20880;-80
2022/09/04 07:11:04;;;;;;;3.73;3.20;;;26.00;99.90;;;;;;5057945;28;20447;-80
2022/09/04 07:14:15;;;;;;;3.50;3.20;;;28.50;94.20;;;;;;5068565;28;20444;-80
2022/09/04 07:17:15;;;;;;;3.20;3.00;;;28.50;90.70;;;;;;5062358;28;20485;-80
2022/09/04 07:20:11;;;;;;;3.43;3.13;;;29.10;90.40;;;;;;5067363;28;20464;-81
2022/09/04 07:22:53;;;;;;;3.13;2.83;;;30.20;86.30;;;;;;5038861;28;20474;-81
2022/09/04 07:25:25;;;;;;;3.10;2.80;;;31.10;82.20;;;;;;5063356;28;20443;-81
2022/09/04 07:27:56;;;;;;;3.80;3.50;;;32.00;79.10;;;;;;5064629;28;20447;-80
2022/09/04 07:30:24;;;;;;;2.90;2.70;;;33.50;73.70;;;;;;5059558;28;20471;-81
2022/09/04 07:33:24;;;;;;;2.93;2.73;;;35.60;67.10;;;;;;5067403;28;20938;-81
2022/09/04 07:36:06;;;;;;;3.43;3.10;;;37.20;60.30;;;;;;5064353;28;20470;-82
2022/09/04 07:38:42;;;;;;;2.53;2.33;;;38.70;56.90;;;;;;5064625;28;20538;-81
2022/09/04 07:41:37;;;;;;;2.80;2.50;;;38.90;53.50;;;;;;5065816;28;20484;-81
2022/09/04 07:44:08;;;;;;;2.93;2.73;;;39.50;51.80;;;;;;5066429;28;21306;-81
2022/09/04 07:47:11;;;;;;;2.70;2.50;;;39.10;50.20;;;;;;5065655;28;20453;-81
2022/09/04 07:49:58;;;;;;;3.93;3.73;;;39.80;48.00;;;;;;5064661;28;20970;-80
2022/09/04 07:53:05;;;;;;;3.10;2.87;;;38.90;49.00;;;;;;5064258;28;20434;-80
2022/09/04 07:55:36;;;;;;;2.80;2.60;;;38.30;49.90;;;;;;5067580;28;21012;-81
2022/09/04 07:58:07;;;;;;;4.03;2.40;;;38.20;48.70;;;;;;5063701;28;20438;-80
2022/09/04 08:00:42;;;;;;;4.00;3.27;;;38.40;49.10;;;;;;5063293;28;20427;-80
2022/09/04 08:03:45;;;;;;;3.63;2.63;;;39.20;48.90;;;;;;5058029;28;20441;-80
2022/09/04 08:06:21;;;;;;;1.90;1.80;;;39.10;47.00;;;;;;5063670;28;20435;-80
2022/09/04 08:09:41;;;;;;;2.50;2.30;;;38.40;47.60;;;;;;5059206;28;20516;-80
2022/09/04 08:12:31;;;;;;;2.90;2.70;;;37.60;49.00;;;;;;5005087;28;20712;-78
2022/09/04 08:15:14;;;;;;;2.50;2.30;;;36.30;50.90;;;;;;5068020;28;20478;-81
2022/09/04 08:17:55;;;;;;;2.43;2.33;;;37.30;50.40;;;;;;5062120;28;20445;-84
2022/09/04 08:20:33;;;;;;;2.73;2.53;;;39.10;48.50;;;;;;5065285;28;21016;-81
2022/09/04 08:23:12;;;;;;;2.67;2.20;;;40.10;47.10;;;;;;5062924;28;20518;-83
2022/09/04 08:25:50;;;;;;;2.57;2.43;;;40.20;45.40;;;;;;5066948;28;20434;-86
2022/09/04 08:28:37;;;;;;;2.80;2.60;;;39.90;45.70;;;;;;5066239;28;20463;-85
2022/09/04 08:31:19;;;;;;;2.47;2.27;;;41.30;44.50;;;;;;5066599;28;20486;-85
2022/09/04 08:34:14;;;;;;;2.03;1.93;;;42.20;42.80;;;;;;5073214;28;20446;-84
2022/09/04 08:37:09;;;;;;;2.50;2.30;;;42.00;41.80;;;;;;5065728;28;20468;-85
2022/09/04 08:40:00;;;;;;;3.07;1.93;;;42.20;41.20;;;;;;5063959;28;21011;-85
2022/09/04 08:42:52;;;;;;;2.47;2.20;;;40.90;41.80;;;;;;5065529;28;20443;-83
2022/09/04 08:45:56;;;;;;;2.00;1.90;;;37.90;45.00;;;;;;5065817;28;20438;-82
2022/09/04 08:48:41;;;;;;;2.07;1.97;;;36.60;47.80;;;;;;5038107;28;20478;-83
2022/09/04 08:51:29;;;;;;;2.00;1.90;;;33.90;52.20;;;;;;5065353;28;20898;-78
2022/09/04 08:54:14;;;;;;;2.27;2.00;;;31.70;56.40;;;;;;5064923;28;20542;-77
2022/09/04 08:56:48;;;;;;;2.13;2.03;;;30.60;60.30;;;;;;5064853;28;20453;-77
2022/09/04 08:59:47;;;;;;;2.37;2.20;;;29.60;64.50;;;;;;5066493;28;20491;-77
2022/09/04 09:02:34;;;;;;;2.60;2.40;;;29.50;67.60;;;;;;5057963;28;20509;-76
2022/09/04 09:05:27;;;;;;;2.40;2.20;;;29.20;67.80;;;;;;5068538;28;20453;-77
2022/09/04 09:08:27;;;;;;;3.43;2.30;;;27.10;68.80;;;;;;5067354;28;20437;-76
2022/09/04 09:11:23;;;;;;;2.20;2.10;;;28.30;70.60;;;;;;5065214;28;20444;-76
2022/09/04 09:14:24;;;;;;;3.20;2.00;;;28.40;71.50;;;;;;5065248;28;20454;-76
2022/09/04 09:17:15;;;;;;;2.60;2.40;;;27.50;74.60;;;;;;5066209;28;20780;-76
2022/09/04 09:19:43;;;;;;;3.10;2.90;;;27.30;79.50;;;;;;5065903;28;20455;-77
2022/09/04 09:22:26;;;;;;;3.43;2.93;;;27.00;79.70;;;;;;5056819;28;20848;-77
2022/09/04 09:25:39;;;;;;;2.47;2.27;;;26.50;81.50;;;;;;5067550;28;20466;-77
2022/09/04 09:28:16;;;;;;;4.57;2.50;;;26.40;83.90;;;;;;5021625;28;20449;-77
2022/09/04 09:31:01;;;;;;;2.57;2.37;;;26.70;84.20;;;;;;5069818;28;20478;-76
2022/09/04 09:33:47;;;;;;;2.97;2.77;;;26.40;84.40;;;;;;5072444;28;20450;-77
2022/09/04 09:36:28;;;;;;;2.60;2.40;;;26.50;85.90;;;;;;5065076;28;20438;-78
2022/09/04 09:39:16;;;;;;;2.63;2.43;;;26.20;87.00;;;;;;5070605;28;20519;-78
2022/09/04 09:42:12;;;;;;;2.40;2.20;;;26.00;87.00;;;;;;5069391;28;20435;-75
2022/09/04 09:45:16;;;;;;;2.40;2.27;;;26.40;88.00;;;;;;5069050;28;20441;-77
2022/09/04 09:48:19;;;;;;;2.67;2.47;;;25.80;88.80;;;;;;5068936;28;20438;-77
2022/09/04 09:51:22;;;;;;;2.40;2.20;;;26.10;88.90;;;;;;5040703;28;20566;-77
2022/09/04 09:54:14;;;;;;;3.40;2.03;;;26.00;86.30;;;;;;5064443;28;20434;-77
2022/09/04 09:57:11;;;;;;;2.20;2.00;;;26.00;86.20;;;;;;5068396;28;20431;-77
2022/09/04 10:00:01;;;;;;;2.50;1.93;;;26.00;85.30;;;;;;5071562;28;20447;-77
2022/09/04 10:03:08;;;;;;;1.80;1.70;;;25.70;85.20;;;;;;5064900;28;21163;-77
2022/09/04 10:06:08;;;;;;;2.57;2.37;;;25.50;87.70;;;;;;5067995;28;20506;-78
2022/09/04 10:09:08;;;;;;;3.37;1.80;;;25.40;88.10;;;;;;5071371;28;20576;-78
2022/09/04 10:12:10;;;;;;;1.90;1.80;;;25.40;88.50;;;;;;5067426;28;20447;-77
2022/09/04 10:14:52;;;;;;;3.57;2.00;;;25.50;88.60;;;;;;5067004;28;20559;-77
2022/09/04 10:17:36;;;;;;;3.20;2.00;;;25.60;87.30;;;;;;5070997;28;20780;-77
2022/09/04 10:20:29;;;;;;;2.23;2.00;;;25.70;87.40;;;;;;5069629;28;20482;-78
2022/09/04 10:23:04;;;;;;;2.17;1.97;;;25.50;88.70;;;;;;5067612;28;20986;-78
2022/09/04 10:25:54;;;;;;;2.17;1.97;;;25.60;87.40;;;;;;5070635;28;20437;-77
2022/09/04 10:28:58;;;;;;;3.60;2.00;;;25.50;85.90;;;;;;5068914;28;20960;-77
2022/09/04 10:31:37;;;;;;;2.17;1.97;;;25.60;87.50;;;;;;5085697;28;20449;-78
2022/09/04 10:34:40;;;;;;;2.33;2.13;;;25.40;87.80;;;;;;5055027;28;20473;-77
2022/09/04 10:37:15;;;;;;;1.70;1.60;;;25.50;87.80;;;;;;5067962;28;20991;-79
2022/09/04 10:43:09;;;;;;;2.37;2.17;;;25.60;86.00;;;;;;5060913;28;20852;-78
2022/09/04 10:45:39;;;;;;;2.30;2.10;;;25.40;86.20;;;;;;5065289;28;20452;-78
2022/09/04 10:48:45;;;;;;;2.07;1.97;;;25.40;87.10;;;;;;5063996;28;20439;-78
2022/09/04 10:51:33;;;;;;;2.10;1.87;;;25.60;85.20;;;;;;5005463;28;20544;-78
2022/09/04 10:54:20;;;;;;;1.90;1.80;;;25.70;82.90;;;;;;5004470;28;20962;-78
2022/09/04 10:56:57;;;;;;;2.30;2.10;;;25.80;80.90;;;;;;5051142;28;20506;-78
2022/09/04 11:00:01;;;;;;;1.90;1.80;;;25.80;83.60;;;;;;5064286;28;20458;-78
2022/09/04 11:02:43;;;;;;;2.10;2.00;;;25.80;81.40;;;;;;5064307;28;20529;-78
2022/09/04 11:05:51;;;;;;;1.87;1.77;;;25.70;82.00;;;;;;5069961;28;20458;-78
2022/09/04 11:08:52;;;;;;;3.27;2.50;;;26.60;81.00;;;;;;5066272;28;20464;-77
2022/09/04 11:11:52;;;;;;;1.97;1.87;;;27.90;75.90;;;;;;5068567;28;20866;-79
2022/09/04 11:14:42;;;;;;;1.70;1.60;;;28.50;70.80;;;;;;5064674;28;20489;-78
2022/09/04 11:17:36;;;;;;;1.60;1.50;;;29.20;67.20;;;;;;5065800;28;20438;-78
2022/09/04 11:20:20;;;;;;;2.07;1.83;;;29.00;66.80;;;;;;5064994;28;20462;-78
2022/09/04 11:22:49;;;;;;;1.87;1.77;;;29.00;68.30;;;;;;5066652;28;20439;-78
2022/09/04 11:25:18;;;;;;;2.83;2.50;;;29.40;66.60;;;;;;5069385;28;20499;-77
2022/09/04 11:27:58;;;;;;;1.90;1.80;;;28.60;67.80;;;;;;5066342;28;20994;-77
2022/09/04 11:31:05;;;;;;;3.63;2.03;;;27.90;67.80;;;;;;5067465;28;20450;-78
2022/09/04 11:33:49;;;;;;;1.70;1.60;;;28.00;67.60;;;;;;5029874;28;20528;-78
2022/09/04 11:36:53;;;;;;;2.57;2.37;;;27.70;68.60;;;;;;5067546;28;21179;-77
2022/09/04 11:39:48;;;;;;;1.90;1.80;;;27.50;70.80;;;;;;5058073;28;20462;-77
2022/09/04 11:42:28;;;;;;;1.93;1.73;;;27.10;71.30;;;;;;5064686;28;20931;-78
2022/09/04 11:45:40;;;;;;;1.73;1.63;;;26.80;71.20;;;;;;5069382;28;20430;-78
2022/09/04 11:48:43;;;;;;;3.13;2.30;;;26.40;70.70;;;;;;5063261;28;20479;-77
2022/09/04 11:51:58;;;;;;;3.07;1.80;;;26.60;72.00;;;;;;5063005;28;20501;-78
2022/09/04 11:54:56;;;;;;;2.43;2.23;;;26.70;72.90;;;;;;5009654;28;20578;-78
2022/09/04 11:57:48;;;;;;;2.00;1.90;;;26.50;72.50;;;;;;4995910;28;20445;-78
2022/09/04 12:00:15;;;;;;;2.10;2.00;;;26.30;73.20;;;;;;5062984;28;20462;-78
2022/09/04 12:03:11;;;;;;;1.70;1.60;;;26.50;73.90;;;;;;5070051;28;20429;-78
2022/09/04 12:05:49;;;;;;;3.50;2.60;;;26.00;73.40;;;;;;5067772;28;20457;-78
2022/09/04 12:08:25;;;;;;;2.07;1.77;;;26.40;75.40;;;;;;5065429;28;20473;-77
2022/09/04 12:11:03;;;;;;;3.10;1.70;;;26.00;73.90;;;;;;5067881;28;20452;-77
2022/09/04 12:13:31;;;;;;;2.50;2.30;;;26.00;75.10;;;;;;5069805;28;20434;-78
2022/09/04 12:16:17;;;;;;;1.80;1.70;;;26.20;75.00;;;;;;5068351;28;20474;-78
2022/09/04 12:19:07;;;;;;;2.13;1.90;;;26.10;74.40;;;;;;5065685;28;20695;-78
2022/09/04 12:22:16;;;;;;;8.40;7.80;;;26.20;73.10;;;;;;5062589;28;20472;-78
2022/09/04 12:25:09;;;;;;;2.70;2.50;;;26.10;72.40;;;;;;4986962;28;20458;-78
2022/09/04 12:27:54;;;;;;;2.43;1.90;;;26.30;72.30;;;;;;5063185;28;20466;-78
2022/09/04 12:30:24;;;;;;;1.90;1.80;;;26.40;71.20;;;;;;5057711;28;20949;-77
2022/09/04 12:33:13;;;;;;;1.80;1.70;;;26.50;73.00;;;;;;5069509;28;20442;-78
2022/09/04 12:35:41;;;;;;;1.70;1.60;;;26.60;70.50;;;;;;5063105;28;20471;-78
2022/09/04 12:38:45;;;;;;;2.40;1.73;;;26.50;70.20;;;;;;5067591;28;20435;-78
2022/09/04 12:41:18;;;;;;;2.10;1.80;;;26.50;70.60;;;;;;5065501;28;20492;-78
2022/09/04 12:44:05;;;;;;;1.90;1.77;;;26.20;70.80;;;;;;5068821;28;20442;-78
2022/09/04 12:47:12;;;;;;;2.17;1.97;;;26.10;71.30;;;;;;5066501;28;20507;-78
2022/09/04 12:50:10;;;;;;;2.80;1.80;;;26.20;72.70;;;;;;5060729;28;20459;-79
2022/09/04 12:52:54;;;;;;;1.87;1.77;;;26.10;71.50;;;;;;5066022;28;21061;-80
2022/09/04 12:55:51;;;;;;;1.90;1.80;;;26.10;71.90;;;;;;5067062;28;20865;-78
2022/09/04 12:58:33;;;;;;;1.77;1.67;;;26.20;70.50;;;;;;5065572;28;20493;-77
2022/09/04 13:01:14;;;;;;;1.77;1.67;;;26.50;70.50;;;;;;5069658;28;20443;-78
2022/09/04 13:03:51;;;;;;;1.80;1.70;;;26.40;70.80;;;;;;5069997;28;20488;-79
2022/09/04 13:06:43;;;;;;;1.90;1.77;;;26.60;69.90;;;;;;5066742;28;20463;-79
2022/09/04 13:09:21;;;;;;;1.70;1.60;;;26.60;70.20;;;;;;5064076;28;20458;-78
2022/09/04 13:12:09;;;;;;;1.90;1.80;;;26.60;69.90;;;;;;5071583;28;20434;-78
2022/09/04 13:15:09;;;;;;;2.30;2.10;;;26.70;68.80;;;;;;5071920;28;20483;-79
2022/09/04 13:17:38;;;;;;;2.00;1.80;;;26.60;70.20;;;;;;5063278;28;20468;-78
2022/09/04 13:20:45;;;;;;;1.60;1.50;;;26.50;71.00;;;;;;5066583;28;20455;-78
2022/09/04 13:23:48;;;;;;;1.80;1.70;;;26.60;71.80;;;;;;5061293;28;20436;-78
2022/09/04 13:27:06;;;;;;;2.13;2.00;;;26.70;71.80;;;;;;5065582;28;20432;-79
2022/09/04 13:30:00;;;;;;;2.60;2.40;;;26.70;72.60;;;;;;5049726;28;20463;-78
2022/09/04 13:32:42;;;;;;;2.53;2.30;;;26.80;71.80;;;;;;5062030;28;20483;-78
2022/09/04 13:35:41;;;;;;;1.90;1.80;;;26.80;70.60;;;;;;5060725;28;20484;-78
2022/09/04 13:38:36;;;;;;;2.77;2.57;;;26.80;69.10;;;;;;5063342;28;20956;-78
2022/09/04 13:41:23;;;;;;;1.80;1.70;;;26.50;69.10;;;;;;5067513;28;20519;-78
2022/09/04 13:44:20;;;;;;;1.77;1.67;;;26.50;69.40;;;;;;5069276;28;20934;-78
2022/09/04 13:46:58;;;;;;;2.00;1.80;;;26.50;69.10;;;;;;5062537;28;20932;-78
2022/09/04 13:49:34;;;;;;;2.20;2.00;;;26.80;71.10;;;;;;5066119;28;20480;-78
2022/09/04 13:52:21;;;;;;;1.93;1.83;;;26.60;69.60;;;;;;5070878;28;20438;-79
2022/09/04 13:54:56;;;;;;;1.97;1.83;;;26.60;70.20;;;;;;5066105;28;20485;-78
2022/09/04 13:57:29;;;;;;;2.80;2.43;;;26.60;68.50;;;;;;5064755;28;20914;-78
2022/09/04 14:00:01;;;;;;;2.00;1.80;;;26.90;69.30;;;;;;5068622;28;20462;-78
2022/09/04 14:02:27;;;;;;;1.90;1.80;;;26.80;71.10;;;;;;5070955;28;20423;-78
2022/09/04 14:05:10;;;;;;;2.43;2.20;;;26.30;70.70;;;;;;5071544;28;20806;-78
2022/09/04 14:07:39;;;;;;;1.83;1.73;;;26.40;71.80;;;;;;5070821;28;20427;-78
2022/09/04 14:10:40;;;;;;;4.90;1.83;;;26.60;70.70;;;;;;5058665;28;21076;-78
2022/09/04 14:13:27;;;;;;;2.20;1.97;;;26.40;69.90;;;;;;5038713;28;20455;-78
2022/09/04 14:16:05;;;;;;;1.80;1.70;;;26.60;68.60;;;;;;5069901;28;20558;-78
2022/09/04 14:18:55;;;;;;;2.00;1.80;;;26.60;69.50;;;;;;5067527;28;20459;-79
2022/09/04 14:21:39;;;;;;;3.00;1.50;;;26.80;69.50;;;;;;5067894;28;20505;-78
2022/09/04 14:24:23;;;;;;;1.83;1.70;;;26.40;68.80;;;;;;5067793;28;20512;-78
2022/09/04 14:27:13;;;;;;;2.00;1.80;;;26.40;69.70;;;;;;5067822;28;20450;-79
2022/09/04 14:29:53;;;;;;;1.90;1.73;;;26.50;68.80;;;;;;5069723;28;20462;-78
2022/09/04 14:32:59;;;;;;;2.10;1.90;;;26.30;68.20;;;;;;5069513;28;21214;-77
2022/09/04 14:35:45;;;;;;;2.53;2.33;;;26.40;68.70;;;;;;5067169;28;20554;-76
2022/09/04 14:38:36;;;;;;;2.70;2.50;;;26.70;68.40;;;;;;5064260;28;20445;-76